Time;durP1;ratioP1;P1;durP2;ratioP2;P2;SDS_P1;SDS_P2;PMS_P1;PMS_P2;Temp;Humidity;BMP_temperature;BMP_pressure;BME280_temperature;BME280_humidity;BME280_pressure;Samples;Min_cycle;Max_cycle;Signal;HPM_P1;HPM_P2
2022/02/23 00:00:52;;;;;;;1999.90;999.90;;;;;;;4.29;100.00;100615.94;5023455;28;20061;-78
2022/02/23 00:03:25;;;;;;;1999.90;999.90;;;;;;;4.31;100.00;100602.22;5024015;28;20045;-78
2022/02/23 00:06:00;;;;;;;1999.90;999.90;;;;;;;4.38;100.00;100614.50;5022812;28;20034;-78
2022/02/23 00:08:33;;;;;;;1999.90;999.90;;;;;;;4.39;100.00;100626.09;5025187;28;20060;-78
2022/02/23 00:11:06;;;;;;;1999.90;999.90;;;;;;;4.43;100.00;100636.16;5021563;28;20065;-79
2022/02/23 00:13:34;;;;;;;1999.90;999.90;;;;;;;4.53;100.00;100634.69;5030137;28;20045;-80
2022/02/23 00:16:02;;;;;;;1999.90;999.90;;;;;;;4.52;100.00;100641.16;5023832;28;20045;-80
2022/02/23 00:18:30;;;;;;;1999.90;999.90;;;;;;;4.64;100.00;100654.59;5027372;28;20137;-78
2022/02/23 00:21:06;;;;;;;1999.90;999.90;;;;;;;4.58;100.00;100656.38;5021958;28;20053;-78
2022/02/23 00:23:34;;;;;;;1999.90;999.90;;;;;;;4.65;100.00;100658.94;5025498;28;20049;-77
2022/02/23 00:26:03;;;;;;;1999.90;999.90;;;;;;;4.57;100.00;100657.41;5034247;28;20040;-80
2022/02/23 00:28:31;;;;;;;1999.90;999.90;;;;;;;4.62;100.00;100662.09;5022980;28;20048;-80
2022/02/23 00:30:59;;;;;;;1999.90;999.90;;;;;;;4.59;100.00;100663.41;5027053;28;20049;-78
2022/02/23 00:33:32;;;;;;;1999.90;999.90;;;;;;;4.59;100.00;100666.91;5019856;28;20037;-79
2022/02/23 00:36:00;;;;;;;1999.90;999.90;;;;;;;4.56;100.00;100661.19;5050879;28;20037;-78
2022/02/23 00:38:30;;;;;;;1999.90;999.90;;;;;;;4.63;100.00;100674.50;5025167;28;20060;-78
2022/02/23 00:41:03;;;;;;;1999.90;999.90;;;;;;;4.59;100.00;100675.00;5024675;28;20493;-77
2022/02/23 00:43:36;;;;;;;1999.90;999.90;;;;;;;4.69;100.00;100687.03;5024273;28;20053;-79
2022/02/23 00:46:04;;;;;;;1999.90;999.90;;;;;;;4.64;100.00;100689.63;5027837;28;20516;-79
2022/02/23 00:48:37;;;;;;;1999.90;999.90;;;;;;;4.68;100.00;100691.63;5027885;28;20049;-78
2022/02/23 00:51:11;;;;;;;1999.90;999.90;;;;;;;4.69;100.00;100695.13;5022301;28;20046;-79
2022/02/23 00:53:40;;;;;;;1999.90;999.90;;;;;;;4.74;100.00;100716.81;5028948;28;20056;-78
2022/02/23 00:56:13;;;;;;;1999.90;999.90;;;;;;;4.83;100.00;100725.31;5026801;28;20054;-77
2022/02/23 00:58:46;;;;;;;1999.90;999.90;;;;;;;4.86;100.00;100720.28;5030132;28;20049;-78
2022/02/23 01:01:20;;;;;;;1999.90;999.90;;;;;;;4.69;100.00;100739.06;5030374;28;20046;-78
2022/02/23 01:03:53;;;;;;;1999.90;999.90;;;;;;;4.00;100.00;100753.22;5020492;28;20045;-78
2022/02/23 01:06:26;;;;;;;1999.90;999.90;;;;;;;3.83;100.00;100765.75;5027260;28;20037;-79
2022/02/23 01:09:01;;;;;;;1999.90;999.90;;;;;;;3.32;100.00;100714.19;5022454;28;20053;-78
2022/02/23 01:11:34;;;;;;;1999.90;999.90;;;;;;;3.39;100.00;100734.53;5025777;28;20056;-78
2022/02/23 01:14:08;;;;;;;1999.90;999.90;;;;;;;3.44;100.00;100749.19;5037269;28;20069;-77
2022/02/23 01:16:37;;;;;;;1999.90;999.90;;;;;;;3.47;100.00;100752.25;5023071;28;20057;-80
2022/02/23 01:19:06;;;;;;;1999.90;999.90;;;;;;;3.56;100.00;100750.88;5024987;28;20051;-79
2022/02/23 01:21:39;;;;;;;1999.90;999.90;;;;;;;3.57;100.00;100747.09;5028148;28;20410;-79
2022/02/23 01:24:13;;;;;;;1999.90;999.90;;;;;;;3.72;100.00;100740.47;5029118;28;20442;-80
2022/02/23 01:26:47;;;;;;;1999.90;999.90;;;;;;;3.79;100.00;100741.16;5030503;28;20056;-79
2022/02/23 01:29:20;;;;;;;1999.90;999.90;;;;;;;4.06;100.00;100740.69;5031419;28;20779;-78
2022/02/23 01:31:53;;;;;;;1999.90;999.90;;;;;;;4.22;100.00;100744.56;5032668;28;20080;-79
2022/02/23 01:34:26;;;;;;;1999.90;999.90;;;;;;;4.45;100.00;100745.56;5020160;28;20053;-79
2022/02/23 01:36:54;;;;;;;1999.90;999.90;;;;;;;4.52;100.00;100752.47;5012968;28;20046;-79
2022/02/23 01:39:28;;;;;;;1999.90;999.90;;;;;;;4.58;100.00;100740.75;5012722;28;20050;-79
2022/02/23 01:42:02;;;;;;;1999.90;999.90;;;;;;;4.58;100.00;100746.16;5014160;28;20038;-78
2022/02/23 01:44:35;;;;;;;1999.90;999.90;;;;;;;4.67;100.00;100757.38;5015028;28;20065;-79
2022/02/23 01:47:04;;;;;;;1999.90;999.90;;;;;;;4.65;100.00;100766.75;5032393;28;20049;-78
2022/02/23 01:49:32;;;;;;;1999.90;999.90;;;;;;;4.71;100.00;100776.56;5024879;28;20050;-79
2022/02/23 01:52:00;;;;;;;1999.90;999.90;;;;;;;4.64;100.00;100771.34;5012800;28;20438;-79
2022/02/23 01:54:30;;;;;;;1999.90;999.90;;;;;;;4.60;100.00;100770.16;5013986;28;20069;-79
2022/02/23 01:57:03;;;;;;;1999.90;999.90;;;;;;;4.67;100.00;100778.09;5012883;28;20053;-78
2022/02/23 01:59:36;;;;;;;1999.90;999.90;;;;;;;4.74;100.00;100795.00;5012626;28;20050;-81
2022/02/23 02:02:05;;;;;;;1999.90;999.90;;;;;;;4.70;100.00;100781.16;5012902;28;20058;-78
2022/02/23 02:04:33;;;;;;;1999.90;999.90;;;;;;;4.71;100.00;100792.75;5029625;28;20053;-79
2022/02/23 02:07:07;;;;;;;1999.90;999.90;;;;;;;4.57;100.00;100784.09;5031990;28;20065;-79
2022/02/23 02:09:37;;;;;;;1998.57;999.90;;;;;;;4.57;100.00;100784.09;5029819;28;20060;-79
2022/02/23 02:12:10;;;;;;;1990.57;999.90;;;;;;;4.57;100.00;100802.97;5030655;28;20060;-78
2022/02/23 02:14:44;;;;;;;1980.32;999.90;;;;;;;4.49;100.00;100793.38;5031975;28;20060;-78
2022/02/23 02:17:17;;;;;;;1962.15;999.90;;;;;;;4.55;100.00;100805.91;5033320;28;20041;-78
2022/02/23 02:19:46;;;;;;;1947.07;999.90;;;;;;;4.43;100.00;100815.88;5031582;28;20049;-77
2022/02/23 02:22:15;;;;;;;1943.13;999.90;;;;;;;4.51;100.00;100815.50;5031557;28;20049;-80
2022/02/23 02:24:49;;;;;;;1920.97;999.90;;;;;;;4.48;100.00;100813.28;5018938;28;20061;-79
2022/02/23 02:27:17;;;;;;;1926.45;999.90;;;;;;;4.45;100.00;100816.47;5012151;28;20060;-79
2022/02/23 02:29:50;;;;;;;1909.75;999.90;;;;;;;4.44;100.00;100814.81;5013087;28;20054;-79
2022/02/23 02:32:24;;;;;;;1899.25;999.90;;;;;;;4.42;100.00;100825.84;5013341;28;20052;-79
2022/02/23 02:34:57;;;;;;;1893.18;999.90;;;;;;;4.47;100.00;100835.91;5016801;28;20045;-80
2022/02/23 02:37:32;;;;;;;1873.70;999.90;;;;;;;4.43;100.00;100838.28;5031736;28;20068;-81
2022/02/23 02:40:06;;;;;;;1855.03;999.90;;;;;;;4.46;100.00;100842.38;5031541;28;20049;-79
2022/02/23 02:42:34;;;;;;;1843.38;999.90;;;;;;;4.36;100.00;100845.63;5032276;28;20394;-78
2022/02/23 02:45:09;;;;;;;1824.60;999.90;;;;;;;4.34;100.00;100852.34;5032887;28;20070;-78
2022/02/23 02:47:37;;;;;;;1820.72;999.90;;;;;;;4.31;100.00;100855.47;5031031;28;20045;-78
2022/02/23 02:50:10;;;;;;;1808.43;999.90;;;;;;;4.41;100.00;100861.91;5027409;28;20053;-78
2022/02/23 02:52:44;;;;;;;1804.72;999.90;;;;;;;4.46;100.00;100885.50;5031587;28;20374;-78
2022/02/23 02:55:18;;;;;;;1794.13;999.90;;;;;;;4.40;100.00;100889.91;5031183;28;20124;-79
2022/02/23 02:57:51;;;;;;;1774.95;999.90;;;;;;;4.40;100.00;100891.81;5031800;28;20398;-78
2022/02/23 03:00:19;;;;;;;1777.32;999.90;;;;;;;4.45;100.00;100891.09;5032437;28;20061;-77
2022/02/23 03:02:52;;;;;;;1777.47;999.90;;;;;;;4.49;100.00;100901.19;5031093;28;20057;-79
2022/02/23 03:05:25;;;;;;;1784.57;999.90;;;;;;;4.65;100.00;100904.22;5030562;28;20053;-77
2022/02/23 03:08:00;;;;;;;1781.53;999.90;;;;;;;4.70;100.00;100899.78;5032012;28;20053;-79
2022/02/23 03:10:28;;;;;;;1780.95;999.90;;;;;;;4.62;100.00;100904.72;5030971;28;20057;-78
2022/02/23 03:13:03;;;;;;;1775.40;999.90;;;;;;;4.65;100.00;100913.13;5030495;28;20057;-78
2022/02/23 03:15:36;;;;;;;1771.00;999.90;;;;;;;4.71;100.00;100919.44;5031585;28;20041;-79
2022/02/23 03:18:04;;;;;;;1768.10;999.90;;;;;;;4.67;100.00;100929.06;5025105;28;20049;-79
2022/02/23 03:20:33;;;;;;;1758.30;999.90;;;;;;;4.59;100.00;100925.66;5022722;28;20076;-78
2022/02/23 03:23:02;;;;;;;1749.78;999.90;;;;;;;4.64;100.00;100938.47;5030916;28;20286;-79
2022/02/23 03:25:30;;;;;;;1755.47;999.90;;;;;;;4.64;100.00;100927.69;5030152;28;20489;-78
2022/02/23 03:28:04;;;;;;;1749.55;999.90;;;;;;;4.70;100.00;100944.78;5028105;28;20045;-78
2022/02/23 03:30:38;;;;;;;1743.18;999.90;;;;;;;4.66;100.00;100952.53;5022853;28;20056;-77
2022/02/23 03:33:11;;;;;;;1723.18;999.90;;;;;;;4.72;100.00;100958.84;5029574;28;20053;-79
2022/02/23 03:35:41;;;;;;;1727.25;999.90;;;;;;;4.73;100.00;100952.41;5030396;28;20673;-78
2022/02/23 03:38:12;;;;;;;1706.15;999.90;;;;;;;4.74;100.00;100954.06;5030167;28;20053;-78
2022/02/23 03:40:42;;;;;;;1705.65;999.90;;;;;;;4.67;100.00;100959.56;5030315;28;20505;-80
2022/02/23 03:43:17;;;;;;;1702.22;999.90;;;;;;;4.69;100.00;100972.81;5030536;28;20050;-79
2022/02/23 03:45:46;;;;;;;1699.10;999.90;;;;;;;4.68;100.00;100960.38;5032074;28;20049;-79
2022/02/23 03:48:14;;;;;;;1692.22;999.90;;;;;;;4.70;100.00;100980.66;5020047;28;20060;-79
2022/02/23 03:50:42;;;;;;;1675.72;999.90;;;;;;;4.68;100.00;100974.69;5019434;28;20053;-78
2022/02/23 03:53:17;;;;;;;1670.25;999.90;;;;;;;4.70;100.00;100985.22;5018075;28;20042;-79
2022/02/23 03:55:50;;;;;;;1652.65;999.90;;;;;;;4.68;100.00;100990.03;5024035;28;20048;-76
2022/02/23 03:58:23;;;;;;;1642.45;999.90;;;;;;;4.62;100.00;100988.28;5029846;28;20442;-78
2022/02/23 04:00:56;;;;;;;1627.68;999.90;;;;;;;4.51;100.00;100988.00;5026830;28;20056;-79
2022/02/23 04:03:29;;;;;;;1614.03;999.90;;;;;;;4.44;100.00;100973.81;5021136;28;20072;-78
2022/02/23 04:06:03;;;;;;;1608.95;999.90;;;;;;;4.55;100.00;100997.28;5019131;28;20069;-78
2022/02/23 04:08:37;;;;;;;1592.22;999.90;;;;;;;4.48;100.00;101004.66;5017206;28;20045;-79
2022/02/23 04:11:11;;;;;;;1579.97;999.90;;;;;;;4.50;100.00;101013.34;5024122;28;20060;-78
2022/02/23 04:13:39;;;;;;;1564.63;999.90;;;;;;;4.43;100.00;101009.91;5022446;28;20056;-78
2022/02/23 04:16:07;;;;;;;1556.97;999.90;;;;;;;4.33;100.00;101013.16;5016688;28;20053;-79
2022/02/23 04:18:35;;;;;;;1544.25;999.90;;;;;;;4.29;100.00;101021.94;5025044;28;20049;-79
2022/02/23 04:21:08;;;;;;;1526.80;999.90;;;;;;;4.33;100.00;101006.97;5017565;28;20058;-78
2022/02/23 04:23:38;;;;;;;1522.82;999.90;;;;;;;4.35;100.00;101037.16;5029542;28;20327;-77
2022/02/23 04:26:11;;;;;;;1510.45;999.90;;;;;;;4.35;100.00;101031.78;5026925;28;20061;-78
2022/02/23 04:28:45;;;;;;;1514.15;999.90;;;;;;;4.45;100.00;101040.16;5026224;28;20501;-80
2022/02/23 04:31:19;;;;;;;1521.82;999.90;;;;;;;4.47;100.00;101023.75;5023808;28;20379;-80
2022/02/23 04:33:53;;;;;;;1516.93;999.90;;;;;;;4.48;100.00;101047.75;5026170;28;20058;-80
2022/02/23 04:36:21;;;;;;;1518.07;999.90;;;;;;;4.38;100.00;101052.91;5027811;28;20068;-79
2022/02/23 04:38:55;;;;;;;1514.10;999.90;;;;;;;4.41;100.00;101047.06;5019204;28;20072;-80
2022/02/23 04:41:24;;;;;;;1510.22;999.90;;;;;;;4.50;100.00;101061.00;5025719;28;20441;-78
2022/02/23 04:43:57;;;;;;;1504.15;999.90;;;;;;;4.51;100.00;101063.47;5026194;28;20072;-78
2022/02/23 04:46:25;;;;;;;1484.20;999.90;;;;;;;4.41;100.00;101068.59;5021952;28;20038;-78
2022/02/23 04:48:54;;;;;;;1469.93;999.90;;;;;;;4.36;100.00;101074.66;5025616;28;20049;-77
2022/02/23 04:51:23;;;;;;;1464.45;999.90;;;;;;;4.39;100.00;101071.53;5027285;28;20068;-78
2022/02/23 04:53:52;;;;;;;1465.88;999.90;;;;;;;4.48;100.00;101076.59;5024521;28;20509;-78
2022/02/23 04:56:27;;;;;;;1460.80;999.90;;;;;;;4.49;100.00;101080.91;5026674;28;20064;-79
2022/02/23 04:59:00;;;;;;;1451.95;999.90;;;;;;;4.49;100.00;101092.53;5026774;28;20049;-78
2022/02/23 05:01:33;;;;;;;1439.32;999.90;;;;;;;4.38;100.00;101083.34;5024801;28;20057;-78
2022/02/23 05:04:01;;;;;;;1421.18;999.90;;;;;;;4.47;100.00;101091.13;5016354;28;20372;-79
2022/02/23 05:06:35;;;;;;;1419.15;999.90;;;;;;;4.52;100.00;101096.66;5026887;28;20056;-80
2022/02/23 05:09:08;;;;;;;1407.18;999.90;;;;;;;4.37;100.00;101105.97;5018452;28;20054;-79
2022/02/23 05:11:42;;;;;;;1386.45;999.90;;;;;;;4.37;100.00;101121.31;5023991;28;20391;-78
2022/02/23 05:14:15;;;;;;;1379.70;999.90;;;;;;;4.29;100.00;101119.75;5026361;28;20049;-80
2022/02/23 05:16:48;;;;;;;1378.40;999.90;;;;;;;4.16;100.00;101122.63;5021688;28;20045;-78
2022/02/23 05:19:22;;;;;;;1375.68;999.90;;;;;;;4.23;100.00;101126.06;5018164;28;20037;-79
2022/02/23 05:21:55;;;;;;;1371.20;999.90;;;;;;;4.22;100.00;101124.41;5018992;28;20057;-80
2022/02/23 05:24:29;;;;;;;1364.97;999.90;;;;;;;4.20;100.00;101123.81;5021540;28;20054;-79
2022/02/23 05:27:04;;;;;;;1365.35;999.90;;;;;;;4.19;100.00;101136.44;5028117;28;20049;-78
2022/02/23 05:29:32;;;;;;;1361.03;999.90;;;;;;;4.13;100.00;101131.97;5027485;28;20057;-80
2022/02/23 05:32:01;;;;;;;1360.93;999.90;;;;;;;4.18;100.00;101148.25;5024214;28;20580;-78
2022/02/23 05:34:29;;;;;;;1356.85;999.90;;;;;;;4.19;100.00;101143.72;5026632;28;20429;-78
2022/02/23 05:36:57;;;;;;;1357.35;999.90;;;;;;;4.23;100.00;101161.88;5020376;28;20056;-78
2022/02/23 05:39:25;;;;;;;1361.28;999.90;;;;;;;4.32;100.00;101166.97;5026183;28;20060;-78
2022/02/23 05:41:58;;;;;;;1360.78;999.90;;;;;;;4.13;100.00;101136.53;5017746;28;20045;-78
2022/02/23 05:44:33;;;;;;;1364.50;999.90;;;;;;;4.33;100.00;101177.53;5024893;28;20425;-79
2022/02/23 05:47:01;;;;;;;1358.45;999.90;;;;;;;4.25;100.00;101165.19;5028931;28;20045;-78
2022/02/23 05:49:34;;;;;;;1355.60;999.90;;;;;;;4.29;100.00;101170.94;5027473;28;20513;-80
2022/02/23 05:52:07;;;;;;;1355.90;999.90;;;;;;;4.27;100.00;101181.13;5028863;28;20064;-79
2022/02/23 05:54:35;;;;;;;1352.93;999.90;;;;;;;4.37;100.00;101186.00;5022377;28;20046;-79
2022/02/23 05:57:04;;;;;;;1349.68;999.90;;;;;;;4.35;100.00;101194.31;5027614;28;20049;-77
2022/02/23 05:59:38;;;;;;;1351.55;999.90;;;;;;;4.37;100.00;101199.47;5019717;28;20049;-79
2022/02/23 06:02:11;;;;;;;1342.20;999.90;;;;;;;4.25;100.00;101202.91;5025811;28;20053;-78
2022/02/23 06:04:45;;;;;;;1345.10;999.90;;;;;;;4.24;100.00;101198.56;5021892;28;20057;-80
2022/02/23 06:07:13;;;;;;;1341.35;999.90;;;;;;;4.34;100.00;101205.31;5030054;28;20069;-79
2022/02/23 06:09:46;;;;;;;1347.05;999.90;;;;;;;4.35;100.00;101217.72;5014205;28;20046;-77
2022/02/23 06:12:19;;;;;;;1341.15;999.90;;;;;;;4.42;100.00;101211.22;5029567;28;20054;-78
2022/02/23 06:14:50;;;;;;;1339.85;999.90;;;;;;;4.43;100.00;101210.16;5019545;28;20520;-78
2022/02/23 06:17:19;;;;;;;1344.97;999.90;;;;;;;4.49;100.00;101221.06;5031472;28;20059;-79
2022/02/23 06:19:47;;;;;;;1342.97;999.90;;;;;;;4.47;100.00;101225.88;5029947;28;20494;-79
2022/02/23 06:22:20;;;;;;;1342.57;999.90;;;;;;;4.49;100.00;101235.38;5028512;28;20056;-78
2022/02/23 06:24:49;;;;;;;1342.70;999.90;;;;;;;4.42;100.00;101231.97;5027265;28;20053;-79
2022/02/23 06:27:22;;;;;;;1331.35;999.90;;;;;;;4.29;100.00;101246.38;5022465;28;20053;-79
2022/02/23 06:29:52;;;;;;;1326.95;999.90;;;;;;;4.29;100.00;101257.16;5023270;28;20053;-80
2022/02/23 06:32:25;;;;;;;1325.00;999.90;;;;;;;4.26;100.00;101254.91;5027917;28;20065;-78
2022/02/23 06:34:53;;;;;;;1321.70;999.90;;;;;;;4.26;100.00;101261.13;5024166;28;20045;-78
2022/02/23 06:37:21;;;;;;;1318.93;999.90;;;;;;;4.23;100.00;101268.84;5026033;28;20049;-78
2022/02/23 06:39:55;;;;;;;1320.47;999.90;;;;;;;4.32;100.00;101277.44;5028349;28;20062;-78
2022/02/23 06:42:28;;;;;;;1319.47;999.90;;;;;;;4.37;100.00;101275.72;5025356;28;20065;-79
2022/02/23 06:44:58;;;;;;;1324.38;999.90;;;;;;;4.50;100.00;101280.16;5021980;28;20045;-78
2022/02/23 06:47:31;;;;;;;1320.78;999.90;;;;;;;4.42;100.00;101281.28;5027734;28;20049;-79
2022/02/23 06:50:00;;;;;;;1325.30;999.90;;;;;;;4.42;100.00;101288.56;5038324;28;20050;-77
2022/02/23 06:52:29;;;;;;;1321.20;999.90;;;;;;;4.50;100.00;101290.09;5022025;28;20053;-80
2022/02/23 06:55:04;;;;;;;1321.15;999.90;;;;;;;4.58;100.00;101306.81;5024512;28;20053;-78
2022/02/23 06:57:38;;;;;;;1318.90;999.90;;;;;;;4.55;100.00;101312.66;5023526;28;20053;-78
2022/02/23 07:00:10;;;;;;;1317.22;999.90;;;;;;;4.54;100.00;101305.63;5026234;28;20423;-79
2022/02/23 07:02:44;;;;;;;1320.07;999.90;;;;;;;4.55;100.00;101314.53;5025260;28;20045;-79
2022/02/23 07:05:17;;;;;;;1315.30;999.90;;;;;;;4.48;100.00;101309.19;5024077;28;20053;-77
2022/02/23 07:07:50;;;;;;;1314.78;999.90;;;;;;;4.56;100.00;101316.19;5029971;28;20049;-78
2022/02/23 07:10:24;;;;;;;1312.07;999.90;;;;;;;4.48;100.00;101321.88;5027826;28;20421;-77
2022/02/23 07:12:53;;;;;;;1312.25;999.90;;;;;;;4.52;100.00;101313.09;5026427;28;20038;-77
2022/02/23 07:15:28;;;;;;;1303.18;999.90;;;;;;;4.49;100.00;101318.09;5029017;28;20053;-78
2022/02/23 07:17:56;;;;;;;1307.20;999.90;;;;;;;4.49;100.00;101324.34;5027747;28;20060;-77
2022/02/23 07:20:25;;;;;;;1302.65;999.90;;;;;;;4.43;100.00;101315.28;5023110;28;20415;-78
2022/02/23 07:22:54;;;;;;;1305.57;999.90;;;;;;;4.41;100.00;101319.25;5024308;28;20053;-79
2022/02/23 07:25:28;;;;;;;1302.32;999.90;;;;;;;4.40;100.00;101322.97;5029289;28;20050;-78
2022/02/23 07:28:01;;;;;;;1297.72;999.90;;;;;;;4.39;100.00;101329.41;5023742;28;20048;-78
2022/02/23 07:30:31;;;;;;;1297.05;999.90;;;;;;;4.42;100.00;101335.19;5025908;28;20049;-78
2022/02/23 07:32:59;;;;;;;1297.55;999.90;;;;;;;4.38;100.00;101331.28;5031840;28;20049;-77
2022/02/23 07:35:27;;;;;;;1293.00;999.90;;;;;;;4.40;100.00;101342.66;5028138;28;20045;-78
2022/02/23 07:38:04;;;;;;;1300.38;999.90;;;;;;;4.37;100.00;101316.16;5027856;28;20053;-78
2022/02/23 07:40:33;;;;;;;1299.30;999.90;;;;;;;4.50;100.00;101342.16;5029476;28;20041;-79
2022/02/23 07:43:07;;;;;;;1304.13;999.90;;;;;;;4.73;100.00;101354.16;5027554;28;20048;-78
2022/02/23 07:45:41;;;;;;;1308.00;999.90;;;;;;;4.82;100.00;101358.22;5024572;28;20252;-78
2022/02/23 07:48:15;;;;;;;1313.43;999.90;;;;;;;4.85;100.00;101360.44;5009464;28;20057;-80
2022/02/23 07:50:48;;;;;;;1309.18;999.90;;;;;;;4.85;100.00;101365.03;5020889;28;20042;-81
2022/02/23 07:53:16;;;;;;;1313.68;999.90;;;;;;;4.97;100.00;101374.00;5029667;28;20048;-79
2022/02/23 07:55:49;;;;;;;1307.80;999.90;;;;;;;5.00;100.00;101387.06;5030651;28;20042;-79
2022/02/23 07:58:17;;;;;;;1311.72;999.90;;;;;;;5.00;100.00;101391.59;5020177;28;20079;-81
2022/02/23 08:00:52;;;;;;;1310.63;999.90;;;;;;;5.07;100.00;101395.88;5027198;28;20061;-80
2022/02/23 08:03:20;;;;;;;1307.47;999.90;;;;;;;5.07;100.00;101395.06;5044884;28;20041;-80
2022/02/23 08:05:49;;;;;;;1308.07;999.90;;;;;;;5.08;100.00;101396.69;5027556;28;20045;-80
2022/02/23 08:08:22;;;;;;;1304.18;999.90;;;;;;;5.07;100.00;101409.38;5024240;28;20049;-79
2022/02/23 08:10:55;;;;;;;1304.55;999.90;;;;;;;5.16;100.00;101409.88;5023661;28;20037;-79
2022/02/23 08:13:28;;;;;;;1298.00;999.90;;;;;;;5.17;100.00;101410.72;5023636;28;20525;-82
2022/02/23 08:21:42;;;;;;;1280.88;999.90;;;;;;;5.13;100.00;101413.03;4998471;28;20278;-81
2022/02/23 08:24:15;;;;;;;1273.25;999.90;;;;;;;5.04;100.00;101423.31;5018920;28;20056;-81
2022/02/23 08:26:48;;;;;;;1268.15;999.90;;;;;;;5.06;100.00;101421.22;5022403;28;20052;-80
2022/02/23 08:29:21;;;;;;;1265.63;999.90;;;;;;;5.09;100.00;101434.25;5021068;28;20064;-81
2022/02/23 08:31:57;;;;;;;1266.55;999.90;;;;;;;5.10;100.00;101437.78;5021074;28;20042;-82
2022/02/23 08:34:25;;;;;;;1263.72;999.90;;;;;;;5.23;100.00;101445.75;5016733;28;20041;-80
2022/02/23 08:36:54;;;;;;;1260.25;999.90;;;;;;;5.33;100.00;101444.38;5020378;28;20640;-81
2022/02/23 08:39:27;;;;;;;1263.28;999.90;;;;;;;5.43;100.00;101450.88;5014498;28;20053;-80
2022/02/23 08:42:00;;;;;;;1263.95;999.90;;;;;;;5.40;100.00;101461.31;5016163;28;20887;-80
2022/02/23 08:44:28;;;;;;;1257.90;999.90;;;;;;;5.36;100.00;101460.09;5018791;28;20064;-79
2022/02/23 08:46:58;;;;;;;1254.50;999.90;;;;;;;5.38;100.00;101458.03;5010374;28;20057;-82
2022/02/23 08:49:34;;;;;;;1251.35;999.90;;;;;;;5.54;100.00;101462.00;5012797;28;20394;-81
2022/02/23 08:52:08;;;;;;;1257.53;999.90;;;;;;;5.54;100.00;101476.31;5008793;28;20053;-80
2022/02/23 08:54:41;;;;;;;1249.65;999.90;;;;;;;5.54;100.00;101484.41;5006434;28;20057;-84
2022/02/23 08:57:14;;;;;;;1246.47;999.90;;;;;;;5.59;100.00;101481.84;5008294;28;20057;-81
2022/02/23 08:59:47;;;;;;;1246.32;999.90;;;;;;;5.64;100.00;101483.88;5009616;28;20057;-80
2022/02/23 09:02:17;;;;;;;1243.32;999.90;;;;;;;5.62;100.00;101484.09;5007406;28;20064;-79
2022/02/23 09:04:50;;;;;;;1236.20;999.90;;;;;;;5.68;100.00;101473.44;5008626;28;20398;-82
2022/02/23 09:07:23;;;;;;;1227.85;999.90;;;;;;;5.78;100.00;101484.53;5013593;28;20557;-84
2022/02/23 09:09:56;;;;;;;1231.07;999.90;;;;;;;5.88;100.00;101490.22;5017499;28;20510;-82
2022/02/23 09:12:29;;;;;;;1225.32;999.90;;;;;;;5.77;100.00;101481.00;5011695;28;20068;-81
2022/02/23 09:14:57;;;;;;;1220.47;999.90;;;;;;;5.92;100.00;101491.41;5007866;28;20131;-83
2022/02/23 09:17:27;;;;;;;1218.47;999.90;;;;;;;6.00;100.00;101487.59;5002523;28;20056;-81
2022/02/23 09:20:00;;;;;;;1212.13;999.90;;;;;;;5.88;100.00;101490.22;5008448;28;20057;-83
2022/02/23 09:22:33;;;;;;;1194.82;999.90;;;;;;;5.96;100.00;101484.47;5002836;28;20064;-80
2022/02/23 09:25:08;;;;;;;1133.85;999.90;;;;;;;5.87;100.00;101499.38;5007587;28;20045;-80
2022/02/23 09:27:41;;;;;;;893.38;830.05;;;;;;;5.90;100.00;101481.88;5004898;28;20049;-82
2022/02/23 09:30:14;;;;;;;579.38;541.88;;;;;;;6.04;100.00;101504.16;5005509;28;20057;-82
2022/02/23 09:32:47;;;;;;;567.97;531.53;;;;;;;6.02;100.00;101512.50;5008151;28;20060;-82
2022/02/23 09:35:20;;;;;;;333.02;314.30;;;;;;;5.94;100.00;101510.09;5011929;28;20646;-82
2022/02/23 09:37:49;;;;;;;346.20;326.67;;;;;;;6.09;100.00;101515.94;5011413;28;20049;-82
2022/02/23 09:40:22;;;;;;;328.75;310.55;;;;;;;6.08;100.00;101514.28;5002334;28;20061;-83
2022/02/23 09:42:51;;;;;;;249.77;236.45;;;;;;;5.88;100.00;101528.03;5008268;28;20057;-82
2022/02/23 09:45:24;;;;;;;157.18;148.88;;;;;;;5.83;100.00;101525.19;5012559;28;20064;-81
2022/02/23 09:48:01;;;;;;;162.20;153.60;;;;;;;5.91;100.00;101530.28;5013358;28;20045;-79
2022/02/23 09:50:29;;;;;;;181.82;172.18;;;;;;;5.88;100.00;101516.38;5016120;28;20057;-80
2022/02/23 09:53:02;;;;;;;169.75;160.70;;;;;;;5.88;100.00;101528.03;5011052;28;20072;-79
2022/02/23 09:55:35;;;;;;;143.77;136.20;;;;;;;5.96;100.00;101527.69;5010342;28;20049;-79
2022/02/23 09:58:08;;;;;;;122.43;116.03;;;;;;;5.99;100.00;101523.75;5010061;28;20053;-82
2022/02/23 10:00:42;;;;;;;117.80;111.68;;;;;;;6.05;100.00;101528.25;5011859;28;20054;-80
2022/02/23 10:03:17;;;;;;;128.20;121.57;;;;;;;6.16;100.00;101533.94;5009537;28;20050;-82
2022/02/23 10:05:50;;;;;;;109.22;103.53;;;;;;;6.10;100.00;101541.06;5012201;28;20057;-80
2022/02/23 10:08:32;;;;;;;121.60;115.30;;;;;;;6.25;100.00;101540.66;5019622;28;20041;-80
2022/02/23 10:11:08;;;;;;;118.30;112.20;;;;;;;6.33;100.00;101543.03;5015037;28;20057;-81
2022/02/23 10:13:49;;;;;;;97.70;92.57;;;;;;;6.41;100.00;101531.09;5009992;28;20053;-83
2022/02/23 10:16:27;;;;;;;91.03;86.22;;;;;;;6.41;100.00;101540.03;5007251;28;20056;-84
2022/02/23 10:19:10;;;;;;;72.75;68.85;;;;;;;6.26;100.00;101537.72;5002593;28;20058;-82
2022/02/23 10:21:45;;;;;;;67.53;63.92;;;;;;;6.43;100.00;101534.38;5002687;28;20053;-81
2022/02/23 10:24:31;;;;;;;72.10;68.25;;;;;;;6.40;100.00;101532.13;5008928;28;21027;-81
2022/02/23 10:27:07;;;;;;;55.92;52.92;;;;;;;6.50;100.00;101534.28;5006753;28;20060;-81
2022/02/23 10:29:48;;;;;;;56.05;53.05;;;;;;;6.59;100.00;101543.72;5007983;28;20053;-81
2022/02/23 10:32:23;;;;;;;54.63;51.72;;;;;;;6.64;100.00;101531.13;5007538;28;20141;-82
2022/02/23 10:34:59;;;;;;;53.70;50.80;;;;;;;6.77;100.00;101545.50;5014914;28;20041;-81
2022/02/23 10:37:34;;;;;;;50.37;47.67;;;;;;;6.63;100.00;101534.91;5007215;28;20057;-82
2022/02/23 10:40:12;;;;;;;45.80;43.35;;;;;;;6.75;100.00;101539.50;5012377;28;20608;-82
2022/02/23 10:42:45;;;;;;;41.25;39.05;;;;;;;6.69;100.00;101543.16;5004901;28;21168;-82
2022/02/23 10:45:19;;;;;;;34.35;32.45;;;;;;;6.57;100.00;101538.53;4998093;28;20061;-82
2022/02/23 10:47:53;;;;;;;37.10;35.10;;;;;;;6.65;100.00;101542.78;5000986;28;20502;-83
2022/02/23 10:50:28;;;;;;;32.33;30.52;;;;;;;6.58;100.00;101553.69;4997844;28;21009;-82
2022/02/23 10:53:02;;;;;;;32.65;30.85;;;;;;;6.70;100.00;101553.72;5006531;28;20049;-82
2022/02/23 10:55:32;;;;;;;35.10;33.20;;;;;;;6.76;100.00;101538.44;5010202;28;20091;-80
2022/02/23 10:58:06;;;;;;;28.42;26.83;;;;;;;7.05;100.00;101550.22;5002953;28;20056;-82
2022/02/23 11:00:41;;;;;;;26.48;24.98;;;;;;;7.18;100.00;101543.78;5010675;28;20537;-82
2022/02/23 11:03:16;;;;;;;24.58;23.17;;;;;;;7.41;100.00;101545.63;5005379;28;20718;-81
2022/02/23 11:05:52;;;;;;;26.42;24.92;;;;;;;7.42;100.00;101543.75;5012075;28;20060;-80
2022/02/23 11:08:21;;;;;;;18.23;17.13;;;;;;;7.37;100.00;101549.88;5009519;28;20057;-82
2022/02/23 11:10:55;;;;;;;12.82;12.02;;;;;;;7.26;100.00;101556.94;5004695;28;20935;-81
2022/02/23 11:13:24;;;;;;;11.50;10.75;;;;;;;7.23;100.00;101546.59;5003795;28;20076;-82
2022/02/23 11:15:57;;;;;;;12.88;12.07;;;;;;;7.10;100.00;101550.34;5003560;28;21027;-83